createdAt,value
2022-08-22T00:02:19.892Z,101209.53
2022-08-22T00:02:58.170Z,101189.88
2022-08-22T00:02:58.944Z,101210.19
2022-08-22T00:03:09.241Z,101178.50
2022-08-22T00:03:10.287Z,101209.75
2022-08-22T00:05:38.424Z,101207.69
2022-08-22T00:09:02.582Z,101206.84
2022-08-22T00:12:22.513Z,101208.78
2022-08-22T00:15:43.013Z,101214.97
2022-08-22T00:19:07.228Z,101208.66
2022-08-22T00:22:24.342Z,101220.84
2022-08-22T00:25:45.452Z,101226.13
2022-08-22T00:29:02.191Z,101218.22
2022-08-22T00:32:20.504Z,101222.56
2022-08-22T00:35:40.480Z,101222.66
2022-08-22T00:39:01.857Z,101224.44
2022-08-22T00:42:41.290Z,101226.13
2022-08-22T00:46:18.388Z,101223.34
2022-08-22T00:49:43.763Z,101224.19
2022-08-22T00:53:26.704Z,101220.75
2022-08-22T00:57:04.739Z,101227.53
2022-08-22T01:00:20.683Z,101225.09
2022-08-22T01:04:07.431Z,101235.84
2022-08-22T01:07:38.362Z,101224.19
2022-08-22T01:11:06.313Z,101225.66
2022-08-22T01:14:34.533Z,101219.38
2022-08-22T01:18:32.479Z,101210.66
2022-08-22T01:22:13.437Z,101217.69
2022-08-22T01:26:01.907Z,101217.84
2022-08-22T01:29:46.915Z,101219.53
2022-08-22T01:33:24.590Z,101217.75
2022-08-22T01:37:13.042Z,101212.47
2022-08-22T01:41:06.286Z,101222.44
2022-08-22T01:44:51.654Z,101217.88
2022-08-22T01:48:09.644Z,101223.91
2022-08-22T01:51:26.945Z,101226.47
2022-08-22T01:54:50.014Z,101224.63
2022-08-22T01:58:03.671Z,101224.56
2022-08-22T02:01:26.828Z,101229.16
2022-08-22T02:04:43.363Z,101230.00
2022-08-22T02:08:00.687Z,101227.16
2022-08-22T02:11:34.762Z,101222.66
2022-08-22T02:14:53.494Z,101219.84
2022-08-22T02:18:18.675Z,101214.44
2022-08-22T02:21:41.974Z,101219.81
2022-08-22T02:25:00.800Z,101223.38
2022-08-22T02:28:14.857Z,101223.47
2022-08-22T02:31:35.456Z,101229.59
2022-08-22T02:34:54.055Z,101231.38
2022-08-22T02:38:14.116Z,101222.44
2022-08-22T02:41:31.664Z,101230.13
2022-08-22T02:44:53.890Z,101227.38
2022-08-22T02:48:12.525Z,101229.22
2022-08-22T02:51:28.002Z,101224.78
2022-08-22T02:54:43.791Z,101224.03
2022-08-22T02:58:01.901Z,101227.72
2022-08-22T03:01:40.948Z,101222.31
2022-08-22T03:04:56.342Z,101225.78
2022-08-22T03:08:14.644Z,101224.84
2022-08-22T03:11:29.974Z,101209.91
2022-08-22T03:14:45.740Z,101220.19
2022-08-22T03:18:07.870Z,101218.31
2022-08-22T03:21:25.368Z,101212.25
2022-08-22T03:24:45.419Z,101212.13
2022-08-22T03:28:01.227Z,101213.88
2022-08-22T03:31:16.907Z,101209.50
2022-08-22T03:34:28.911Z,101216.31
2022-08-22T03:37:42.104Z,101222.56
2022-08-22T03:41:10.544Z,101221.88
2022-08-22T03:44:48.011Z,101220.91
2022-08-22T03:48:36.031Z,101226.09
2022-08-22T03:52:04.904Z,101222.41
2022-08-22T03:55:27.125Z,101232.00
2022-08-22T03:59:01.825Z,101238.06
2022-08-22T04:02:45.851Z,101229.41
2022-08-22T04:06:32.881Z,101234.63
2022-08-22T04:10:07.968Z,101239.84
2022-08-22T04:13:41.327Z,101243.38
2022-08-22T04:17:21.208Z,101246.03
2022-08-22T04:21:00.564Z,101244.28
2022-08-22T04:24:28.938Z,101247.97
2022-08-22T04:27:44.295Z,101243.28
2022-08-22T04:31:00.670Z,101246.75
2022-08-22T04:34:17.791Z,101245.06
2022-08-22T04:37:37.555Z,101242.38
2022-08-22T04:40:53.231Z,101252.03
2022-08-22T04:44:09.205Z,101257.25
2022-08-22T04:47:31.525Z,101251.88
2022-08-22T04:50:46.805Z,101254.56
2022-08-22T04:54:14.998Z,101266.06
2022-08-22T04:57:33.576Z,101258.22
2022-08-22T05:00:55.298Z,101254.50
2022-08-22T05:04:09.802Z,101257.16
2022-08-22T05:07:26.019Z,101257.16
2022-08-22T05:10:39.823Z,101259.06
2022-08-22T05:13:53.856Z,101262.69
2022-08-22T05:17:08.412Z,101274.94
2022-08-22T05:20:23.845Z,101273.88
2022-08-22T05:23:38.027Z,101273.97
2022-08-22T05:26:53.216Z,101273.97
2022-08-22T05:30:09.011Z,101268.81
2022-08-22T05:33:27.761Z,101269.19
2022-08-22T05:36:41.873Z,101272.66
2022-08-22T05:39:56.055Z,101279.81
2022-08-22T05:43:11.193Z,101279.13
2022-08-22T05:46:37.214Z,101275.66
2022-08-22T05:49:56.930Z,101274.91
2022-08-22T05:53:11.668Z,101279.50
2022-08-22T05:56:31.769Z,101282.88
2022-08-22T05:59:46.072Z,101289.91
2022-08-22T06:03:10.519Z,101297.91
2022-08-22T06:06:24.101Z,101298.69
2022-08-22T06:09:55.930Z,101304.03
2022-08-22T06:13:12.805Z,101304.81
2022-08-22T06:16:30.950Z,101303.19
2022-08-22T06:19:44.112Z,101308.53
2022-08-22T06:23:03.763Z,101306.03
2022-08-22T06:26:20.624Z,101315.13
2022-08-22T06:29:37.369Z,101313.53
2022-08-22T06:33:00.095Z,101319.13
2022-08-22T06:36:33.994Z,101307.56
2022-08-22T06:39:50.054Z,101322.75
2022-08-22T06:43:00.631Z,101319.56
2022-08-22T06:46:16.240Z,101319.66
2022-08-22T06:49:29.446Z,101317.03
2022-08-22T06:52:52.783Z,101331.47
2022-08-22T06:56:05.697Z,101330.16
2022-08-22T06:59:19.417Z,101333.22
2022-08-22T07:02:37.756Z,101332.47
2022-08-22T07:05:48.196Z,101332.66
2022-08-22T07:08:59.334Z,101332.19
2022-08-22T07:12:20.089Z,101343.38
2022-08-22T07:15:35.430Z,101346.34
2022-08-22T07:18:51.141Z,101350.50
2022-08-22T07:22:12.730Z,101358.47
2022-08-22T07:25:24.531Z,101357.31
2022-08-22T07:28:50.850Z,101359.50
2022-08-22T07:32:10.939Z,101367.81
2022-08-22T07:35:24.114Z,101363.59
2022-08-22T07:38:42.956Z,101365.28
2022-08-22T07:42:03.703Z,101369.94
2022-08-22T07:45:20.607Z,101366.41
2022-08-22T07:48:48.501Z,101373.50
2022-08-22T07:52:10.855Z,101364.16
2022-08-22T07:55:25.187Z,101373.34
2022-08-22T07:58:40.274Z,101369.34
2022-08-22T08:01:54.545Z,101375.66
2022-08-22T08:05:05.827Z,101369.53
2022-08-22T08:08:23.006Z,101369.41
2022-08-22T08:11:40.431Z,101367.88
2022-08-22T08:14:55.819Z,101361.50
2022-08-22T08:18:13.184Z,101364.53
2022-08-22T08:21:30.588Z,101363.16
2022-08-22T08:24:44.002Z,101367.72
2022-08-22T08:28:15.853Z,101367.50
2022-08-22T08:31:36.660Z,101362.75
2022-08-22T08:34:50.141Z,101363.13
2022-08-22T08:38:07.746Z,101353.03
2022-08-22T08:41:37.509Z,101352.44
2022-08-22T08:45:17.486Z,101342.25
2022-08-22T08:48:51.782Z,101338.50
2022-08-22T08:52:52.772Z,101334.34
2022-08-22T08:56:17.766Z,101338.94
2022-08-22T08:59:45.974Z,101342.91
2022-08-22T09:03:08.264Z,101348.53
2022-08-22T09:06:42.582Z,101340.94
2022-08-22T09:10:16.516Z,101344.19
2022-08-22T09:13:50.063Z,101337.13
2022-08-22T09:17:23.276Z,101328.53
2022-08-22T09:20:56.804Z,101336.88
2022-08-22T09:24:46.690Z,101335.31
2022-08-22T09:28:03.436Z,101341.53
2022-08-22T09:31:47.725Z,101331.47
2022-08-22T09:35:08.877Z,101328.78
2022-08-22T09:38:48.044Z,101326.34
2022-08-22T09:42:07.987Z,101319.22
2022-08-22T09:45:39.012Z,101317.59
2022-08-22T09:49:12.745Z,101312.34
2022-08-22T09:52:44.504Z,101309.81
2022-08-22T09:56:11.606Z,101307.94
2022-08-22T09:59:38.824Z,101307.25
2022-08-22T10:03:02.320Z,101306.00
2022-08-22T10:06:19.642Z,101311.41
2022-08-22T10:09:41.778Z,101303.69
2022-08-22T10:13:10.245Z,101305.19
2022-08-22T10:16:28.372Z,101296.72
2022-08-22T10:19:43.226Z,101311.56
2022-08-22T10:23:04.784Z,101295.47
2022-08-22T10:26:37.905Z,101286.50
2022-08-22T10:30:03.207Z,101294.38
2022-08-22T10:33:20.350Z,101299.78
2022-08-22T10:36:40.056Z,101288.47
2022-08-22T10:39:58.955Z,101294.66
2022-08-22T10:43:12.989Z,101295.53
2022-08-22T10:46:30.027Z,101293.59
2022-08-22T10:49:47.055Z,101287.28
2022-08-22T10:53:30.980Z,101287.13
2022-08-22T10:56:49.621Z,101285.34
2022-08-22T11:00:09.333Z,101284.56
2022-08-22T11:03:24.997Z,101295.28
2022-08-22T11:06:45.252Z,101283.59
2022-08-22T11:10:04.363Z,101281.94
2022-08-22T11:13:21.259Z,101285.59
2022-08-22T11:16:54.955Z,101285.50
2022-08-22T11:20:19.494Z,101280.91
2022-08-22T11:23:44.741Z,101274.91
2022-08-22T11:27:03.924Z,101282.28
2022-08-22T11:30:21.672Z,101280.81
2022-08-22T11:33:46.902Z,101278.28
2022-08-22T11:37:11.058Z,101281.53
2022-08-22T11:40:31.787Z,101271.66
2022-08-22T11:43:54.577Z,101274.41
2022-08-22T11:47:12.005Z,101269.81
2022-08-22T11:50:35.233Z,101265.31
2022-08-22T11:53:52.195Z,101272.41
2022-08-22T11:57:08.752Z,101274.31
2022-08-22T12:00:27.431Z,101260.22
2022-08-22T12:03:58.422Z,101263.22
2022-08-22T12:07:14.893Z,101264.16
2022-08-22T12:10:31.429Z,101263.22
2022-08-22T12:13:50.851Z,101258.00
2022-08-22T12:17:55.669Z,101257.22
2022-08-22T12:21:44.261Z,101251.97
2022-08-22T12:25:09.503Z,101259.88
2022-08-22T12:28:32.573Z,101257.25
2022-08-22T12:32:10.202Z,101255.38
2022-08-22T12:35:30.715Z,101251.91
2022-08-22T12:38:55.796Z,101243.03
2022-08-22T12:42:18.597Z,101242.19
2022-08-22T12:45:41.094Z,101240.34
2022-08-22T12:49:11.209Z,101231.19
2022-08-22T12:52:38.573Z,101236.47
2022-08-22T12:56:03.989Z,101232.97
2022-08-22T12:59:23.980Z,101238.28
2022-08-22T13:02:39.414Z,101222.13
2022-08-22T13:05:56.280Z,101230.97
2022-08-22T13:09:19.530Z,101223.81
2022-08-22T13:12:36.649Z,101229.16
2022-08-22T13:15:58.742Z,101232.66
2022-08-22T13:19:13.452Z,101223.84
2022-08-22T13:22:27.805Z,101222.94
2022-08-22T13:26:03.236Z,101222.09
2022-08-22T13:29:27.200Z,101229.28
2022-08-22T13:32:44.431Z,101221.38
2022-08-22T13:35:58.541Z,101219.75
2022-08-22T13:39:26.338Z,101221.66
2022-08-22T13:42:47.833Z,101223.47
2022-08-22T13:46:02.130Z,101220.81
2022-08-22T13:49:18.680Z,101223.50
2022-08-22T13:52:38.711Z,101209.25
2022-08-22T13:55:51.879Z,101208.31
2022-08-22T13:59:09.614Z,101204.72
2022-08-22T14:02:38.713Z,101202.03
2022-08-22T14:05:59.004Z,101199.34
2022-08-22T14:09:38.722Z,101199.34
2022-08-22T14:13:17.491Z,101198.34
2022-08-22T14:16:33.610Z,101210.72
2022-08-22T14:19:58.989Z,101198.28
2022-08-22T14:23:15.181Z,101199.16
2022-08-22T14:26:32.723Z,101200.75
2022-08-22T14:29:50.378Z,101189.22
2022-08-22T14:33:09.955Z,101190.09
2022-08-22T14:36:24.346Z,101189.25
2022-08-22T14:39:42.958Z,101187.50
2022-08-22T14:42:59.800Z,101186.72
2022-08-22T14:46:14.963Z,101187.69
2022-08-22T14:49:31.636Z,101181.66
2022-08-22T14:52:45.090Z,101184.38
2022-08-22T14:56:00.145Z,101179.03
2022-08-22T14:59:15.349Z,101168.34
2022-08-22T15:02:28.979Z,101161.16
2022-08-22T15:05:50.064Z,101158.44
2022-08-22T15:09:01.098Z,101167.25
2022-08-22T15:12:26.769Z,101169.03
2022-08-22T15:15:41.203Z,101162.88
2022-08-22T15:19:23.780Z,101170.78
2022-08-22T15:22:36.895Z,101172.56
2022-08-22T15:25:59.777Z,101169.00
2022-08-22T15:29:20.309Z,101169.00
2022-08-22T15:32:36.833Z,101168.97
2022-08-22T15:35:55.579Z,101174.25
2022-08-22T15:39:30.693Z,101170.56
2022-08-22T15:42:45.213Z,101168.78
2022-08-22T15:46:18.080Z,101162.53
2022-08-22T15:49:31.617Z,101150.88
2022-08-22T15:53:14.795Z,101154.38
2022-08-22T15:56:30.601Z,101159.78
2022-08-22T15:59:53.734Z,101156.31
2022-08-22T16:03:09.898Z,101153.66
2022-08-22T16:06:56.556Z,101144.81
2022-08-22T16:10:34.048Z,101143.00
2022-08-22T16:13:47.015Z,101143.88
2022-08-22T16:17:02.327Z,101139.41
2022-08-22T16:21:01.496Z,101134.97
2022-08-22T16:24:36.773Z,101142.00
2022-08-22T16:27:56.981Z,101139.31
2022-08-22T16:31:21.784Z,101133.06
2022-08-22T16:34:42.108Z,101133.00
2022-08-22T16:37:52.835Z,101133.91
2022-08-22T16:41:05.346Z,101129.38
2022-08-22T16:44:41.479Z,101131.97
2022-08-22T16:47:58.294Z,101133.75
2022-08-22T16:51:14.365Z,101129.13
2022-08-22T16:54:43.762Z,101130.88
2022-08-22T16:58:06.360Z,101132.59
2022-08-22T17:01:24.084Z,101129.81
2022-08-22T17:04:44.122Z,101140.56
2022-08-22T17:08:09.387Z,101136.91
2022-08-22T17:11:33.265Z,101136.91
2022-08-22T17:14:55.096Z,101132.44
2022-08-22T17:18:36.474Z,101135.00
2022-08-22T17:21:54.507Z,101132.34
2022-08-22T17:25:20.201Z,101142.97
2022-08-22T17:28:39.446Z,101142.88
2022-08-22T17:31:56.848Z,101142.59
2022-08-22T17:35:20.020Z,101144.19
2022-08-22T17:38:47.709Z,101136.81
2022-08-22T17:42:10.708Z,101144.63
2022-08-22T17:45:47.036Z,101142.72
2022-08-22T17:49:03.860Z,101146.06
2022-08-22T17:52:20.637Z,101142.44
2022-08-22T17:55:37.966Z,101144.91
2022-08-22T17:58:55.572Z,101137.56
2022-08-22T18:02:16.354Z,101135.75
2022-08-22T18:05:30.939Z,101143.56
2022-08-22T18:12:25.397Z,101142.59
2022-08-22T18:15:43.314Z,101147.72
2022-08-22T18:18:58.888Z,101145.06
2022-08-22T18:22:14.241Z,101156.31
2022-08-22T18:25:35.657Z,101150.91
2022-08-22T18:28:52.751Z,101160.50
2022-08-22T18:32:11.037Z,101162.19
2022-08-22T18:35:28.958Z,101162.06
2022-08-22T18:38:49.939Z,101161.06
2022-08-22T18:42:07.959Z,101159.31
2022-08-22T18:45:43.995Z,101175.28
2022-08-22T18:49:14.522Z,101177.84
2022-08-22T18:52:40.676Z,101169.78
2022-08-22T18:55:56.698Z,101183.78
2022-08-22T18:59:23.532Z,101186.47
2022-08-22T19:03:01.141Z,101187.16
2022-08-22T19:06:38.395Z,101186.31
2022-08-22T19:10:09.615Z,101183.53
2022-08-22T19:13:44.412Z,101185.00
2022-08-22T19:17:27.828Z,101186.72
2022-08-22T19:20:58.903Z,101184.88
2022-08-22T19:24:32.408Z,101185.47
2022-08-22T19:27:44.644Z,101195.16
2022-08-22T19:31:22.655Z,101190.72
2022-08-22T19:34:46.973Z,101188.69
2022-08-22T19:38:01.060Z,101191.25
2022-08-22T19:41:45.869Z,101190.25
2022-08-22T19:45:03.692Z,101189.41
2022-08-22T19:48:15.002Z,101194.81
2022-08-22T19:51:28.611Z,101192.22
2022-08-22T19:54:50.881Z,101189.38
2022-08-22T19:58:09.156Z,101192.28
2022-08-22T20:01:36.523Z,101188.91
2022-08-22T20:05:02.518Z,101195.13
2022-08-22T20:08:31.160Z,101191.66
2022-08-22T20:11:46.890Z,101198.91
2022-08-22T20:14:58.548Z,101197.13
2022-08-22T20:18:12.270Z,101192.66
2022-08-22T20:22:03.768Z,101199.84
2022-08-22T20:25:42.243Z,101200.03
2022-08-22T20:28:53.221Z,101207.22
2022-08-22T20:32:05.375Z,101206.34
2022-08-22T20:35:21.683Z,101211.72
2022-08-22T20:38:39.831Z,101208.09
2022-08-22T20:41:55.151Z,101207.13
2022-08-22T20:45:12.407Z,101202.75
2022-08-22T20:48:23.616Z,101201.03
2022-08-22T20:51:35.445Z,101206.41
2022-08-22T20:54:59.904Z,101207.22
2022-08-22T20:58:22.733Z,101212.38
2022-08-22T21:01:34.660Z,101212.31
2022-08-22T21:04:53.209Z,101222.03
2022-08-22T21:08:07.157Z,101216.72
2022-08-22T21:11:51.792Z,101223.84
2022-08-22T21:15:03.401Z,101213.38
2022-08-22T21:18:25.621Z,101219.50
2022-08-22T21:21:36.702Z,101223.16
2022-08-22T21:24:47.231Z,101220.44
2022-08-22T21:27:59.877Z,101233.66
2022-08-22T21:31:14.020Z,101219.59
2022-08-22T21:34:28.674Z,101211.56
2022-08-22T21:37:41.140Z,101234.59
2022-08-22T21:40:52.691Z,101221.25
2022-08-22T21:44:28.098Z,101224.91
2022-08-22T21:47:40.868Z,101224.72
2022-08-22T21:50:52.592Z,101232.56
2022-08-22T21:54:28.851Z,101232.59
2022-08-22T21:57:40.131Z,101226.38
2022-08-22T22:00:52.890Z,101223.72
2022-08-22T22:04:03.925Z,101229.94
2022-08-22T22:07:15.747Z,101227.13
2022-08-22T22:10:26.520Z,101229.72
2022-08-22T22:13:37.347Z,101239.53
2022-08-22T22:16:48.050Z,101234.94
2022-08-22T22:19:58.044Z,101242.00
2022-08-22T22:23:10.394Z,101241.06
2022-08-22T22:26:21.352Z,101238.38
2022-08-22T22:29:32.592Z,101242.69
2022-08-22T22:32:43.293Z,101242.66
2022-08-22T22:36:00.745Z,101240.91
2022-08-22T22:39:12.959Z,101243.56
2022-08-22T22:42:23.299Z,101244.16
2022-08-22T22:45:33.287Z,101244.06
2022-08-22T22:48:43.374Z,101252.00
2022-08-22T22:51:53.877Z,101245.66
2022-08-22T22:55:07.656Z,101248.13
2022-08-22T22:58:17.898Z,101250.78
2022-08-22T23:01:28.736Z,101243.59
2022-08-22T23:04:41.686Z,101239.97
2022-08-22T23:07:52.009Z,101251.31
2022-08-22T23:11:10.033Z,101249.59
2022-08-22T23:14:21.040Z,101248.69
2022-08-22T23:17:31.178Z,101249.50
2022-08-22T23:20:41.468Z,101242.44
2022-08-22T23:23:52.379Z,101246.66
2022-08-22T23:27:04.825Z,101230.94
2022-08-22T23:30:15.373Z,101250.16
2022-08-22T23:33:25.640Z,101242.03
2022-08-22T23:36:36.338Z,101243.66
2022-08-22T23:39:46.482Z,101246.16
2022-08-22T23:42:59.258Z,101244.25
2022-08-22T23:46:10.264Z,101243.22
2022-08-22T23:49:20.765Z,101252.94
2022-08-22T23:52:31.477Z,101243.16
2022-08-22T23:55:42.137Z,101246.63
2022-08-22T23:58:54.379Z,101254.56
